sensor_id;sensor_type;location;lat;lon;timestamp;temperature;humidity
9808;DHT22;4943;52.550;13.462;2023-03-23T00:02:15;14.80;99.90
9808;DHT22;4943;52.550;13.462;2023-03-23T00:04:44;14.70;99.90
9808;DHT22;4943;52.550;13.462;2023-03-23T00:07:11;14.70;99.90
9808;DHT22;4943;52.550;13.462;2023-03-23T00:09:38;14.70;99.90
9808;DHT22;4943;52.550;13.462;2023-03-23T00:12:07;14.60;99.90
9808;DHT22;4943;52.550;13.462;2023-03-23T00:14:34;14.60;99.90
9808;DHT22;4943;52.550;13.462;2023-03-23T00:17:08;14.50;99.90
9808;DHT22;4943;52.550;13.462;2023-03-23T00:19:37;14.50;99.90
9808;DHT22;4943;52.550;13.462;2023-03-23T00:22:14;14.50;99.90
9808;DHT22;4943;52.550;13.462;2023-03-23T00:24:41;14.50;99.90
9808;DHT22;4943;52.550;13.462;2023-03-23T00:27:08;14.40;99.90
9808;DHT22;4943;52.550;13.462;2023-03-23T00:29:38;14.40;99.90
9808;DHT22;4943;52.550;13.462;2023-03-23T00:32:05;14.40;99.90
9808;DHT22;4943;52.550;13.462;2023-03-23T00:34:38;14.40;99.90
9808;DHT22;4943;52.550;13.462;2023-03-23T00:37:06;14.40;99.90
9808;DHT22;4943;52.550;13.462;2023-03-23T00:39:35;14.40;99.90
9808;DHT22;4943;52.550;13.462;2023-03-23T00:42:03;14.40;99.90
9808;DHT22;4943;52.550;13.462;2023-03-23T00:44:32;14.40;99.90
9808;DHT22;4943;52.550;13.462;2023-03-23T00:47:00;14.40;99.90
9808;DHT22;4943;52.550;13.462;2023-03-23T00:49:30;14.30;99.90
9808;DHT22;4943;52.550;13.462;2023-03-23T00:52:01;14.30;99.90
9808;DHT22;4943;52.550;13.462;2023-03-23T00:54:28;14.30;99.90
9808;DHT22;4943;52.550;13.462;2023-03-23T00:56:56;14.20;99.90
9808;DHT22;4943;52.550;13.462;2023-03-23T00:59:23;14.20;99.90
9808;DHT22;4943;52.550;13.462;2023-03-23T01:01:51;14.20;99.90
9808;DHT22;4943;52.550;13.462;2023-03-23T01:04:18;14.10;99.90
9808;DHT22;4943;52.550;13.462;2023-03-23T01:06:49;14.10;99.90
9808;DHT22;4943;52.550;13.462;2023-03-23T01:09:18;14.10;99.90
9808;DHT22;4943;52.550;13.462;2023-03-23T01:11:48;14.00;99.90
9808;DHT22;4943;52.550;13.462;2023-03-23T01:14:18;14.00;99.90
9808;DHT22;4943;52.550;13.462;2023-03-23T01:16:45;14.00;99.90
9808;DHT22;4943;52.550;13.462;2023-03-23T01:19:12;14.00;99.90
9808;DHT22;4943;52.550;13.462;2023-03-23T01:21:41;14.00;99.90
9808;DHT22;4943;52.550;13.462;2023-03-23T01:24:08;14.00;99.90
9808;DHT22;4943;52.550;13.462;2023-03-23T01:26:37;14.00;99.90
9808;DHT22;4943;52.550;13.462;2023-03-23T01:29:04;13.90;99.90
9808;DHT22;4943;52.550;13.462;2023-03-23T01:31:33;13.90;99.90
9808;DHT22;4943;52.550;13.462;2023-03-23T01:34:02;13.90;99.90
9808;DHT22;4943;52.550;13.462;2023-03-23T01:36:30;13.90;99.90
9808;DHT22;4943;52.550;13.462;2023-03-23T01:38:58;13.90;99.90
9808;DHT22;4943;52.550;13.462;2023-03-23T01:41:26;13.80;99.90
9808;DHT22;4943;52.550;13.462;2023-03-23T01:43:58;13.80;99.90
9808;DHT22;4943;52.550;13.462;2023-03-23T01:46:27;13.80;99.90
9808;DHT22;4943;52.550;13.462;2023-03-23T01:48:57;13.80;99.90
9808;DHT22;4943;52.550;13.462;2023-03-23T01:51:26;13.80;99.90
9808;DHT22;4943;52.550;13.462;2023-03-23T01:53:57;13.90;99.90
9808;DHT22;4943;52.550;13.462;2023-03-23T01:56:29;13.90;99.90
9808;DHT22;4943;52.550;13.462;2023-03-23T01:58:58;13.90;99.90
9808;DHT22;4943;52.550;13.462;2023-03-23T02:01:25;13.90;99.90
9808;DHT22;4943;52.550;13.462;2023-03-23T02:03:55;13.90;99.90
9808;DHT22;4943;52.550;13.462;2023-03-23T02:06:23;13.90;99.90
9808;DHT22;4943;52.550;13.462;2023-03-23T02:08:51;13.90;99.90
9808;DHT22;4943;52.550;13.462;2023-03-23T02:11:20;13.90;99.90
9808;DHT22;4943;52.550;13.462;2023-03-23T02:13:48;13.90;99.90
9808;DHT22;4943;52.550;13.462;2023-03-23T02:16:23;13.90;99.90
9808;DHT22;4943;52.550;13.462;2023-03-23T02:19:00;13.90;99.90
9808;DHT22;4943;52.550;13.462;2023-03-23T02:21:50;13.90;99.90
9808;DHT22;4943;52.550;13.462;2023-03-23T02:24:33;14.00;99.90
9808;DHT22;4943;52.550;13.462;2023-03-23T02:27:07;14.00;99.90
9808;DHT22;4943;52.550;13.462;2023-03-23T02:30:00;14.00;99.90
9808;DHT22;4943;52.550;13.462;2023-03-23T02:35:32;14.00;99.90
9808;DHT22;4943;52.550;13.462;2023-03-23T02:38:02;14.00;99.90
9808;DHT22;4943;52.550;13.462;2023-03-23T02:40:36;14.00;99.90
9808;DHT22;4943;52.550;13.462;2023-03-23T02:43:08;14.00;99.90
9808;DHT22;4943;52.550;13.462;2023-03-23T02:45:36;14.00;99.90
9808;DHT22;4943;52.550;13.462;2023-03-23T02:48:05;14.10;99.90
9808;DHT22;4943;52.550;13.462;2023-03-23T02:50:35;14.10;99.90
9808;DHT22;4943;52.550;13.462;2023-03-23T02:53:05;14.10;99.90
9808;DHT22;4943;52.550;13.462;2023-03-23T02:55:34;14.10;99.90
9808;DHT22;4943;52.550;13.462;2023-03-23T02:58:01;14.10;99.90
9808;DHT22;4943;52.550;13.462;2023-03-23T03:00:28;14.20;99.90
9808;DHT22;4943;52.550;13.462;2023-03-23T03:02:56;14.10;99.90
9808;DHT22;4943;52.550;13.462;2023-03-23T03:05:34;14.10;99.90
9808;DHT22;4943;52.550;13.462;2023-03-23T03:08:12;14.20;99.90
9808;DHT22;4943;52.550;13.462;2023-03-23T03:10:46;14.20;99.90
9808;DHT22;4943;52.550;13.462;2023-03-23T03:13:23;14.10;99.90
9808;DHT22;4943;52.550;13.462;2023-03-23T03:15:54;14.20;99.90
9808;DHT22;4943;52.550;13.462;2023-03-23T03:18:25;14.10;99.90
9808;DHT22;4943;52.550;13.462;2023-03-23T03:21:01;14.20;99.90
9808;DHT22;4943;52.550;13.462;2023-03-23T03:23:29;14.20;99.90
9808;DHT22;4943;52.550;13.462;2023-03-23T03:25:58;14.20;99.90
9808;DHT22;4943;52.550;13.462;2023-03-23T03:28:26;14.30;99.90
9808;DHT22;4943;52.550;13.462;2023-03-23T03:30:55;14.30;99.90
9808;DHT22;4943;52.550;13.462;2023-03-23T03:33:23;14.30;99.90
9808;DHT22;4943;52.550;13.462;2023-03-23T03:35:52;14.30;99.90
9808;DHT22;4943;52.550;13.462;2023-03-23T03:38:21;14.30;99.90
9808;DHT22;4943;52.550;13.462;2023-03-23T03:40:48;14.30;99.90
9808;DHT22;4943;52.550;13.462;2023-03-23T03:43:15;14.30;99.90
9808;DHT22;4943;52.550;13.462;2023-03-23T03:45:42;14.30;99.90
9808;DHT22;4943;52.550;13.462;2023-03-23T03:48:10;14.30;99.90
9808;DHT22;4943;52.550;13.462;2023-03-23T03:50:37;14.30;99.90
9808;DHT22;4943;52.550;13.462;2023-03-23T03:53:04;14.30;99.90
9808;DHT22;4943;52.550;13.462;2023-03-23T03:55:33;14.30;99.90
9808;DHT22;4943;52.550;13.462;2023-03-23T03:58:01;14.30;99.90
9808;DHT22;4943;52.550;13.462;2023-03-23T04:00:30;14.30;99.90
9808;DHT22;4943;52.550;13.462;2023-03-23T04:02:57;14.30;99.90
9808;DHT22;4943;52.550;13.462;2023-03-23T04:05:25;14.30;99.90
9808;DHT22;4943;52.550;13.462;2023-03-23T04:07:54;14.40;99.90
9808;DHT22;4943;52.550;13.462;2023-03-23T04:10:28;14.40;99.90
9808;DHT22;4943;52.550;13.462;2023-03-23T04:12:57;14.30;99.90
9808;DHT22;4943;52.550;13.462;2023-03-23T04:15:24;14.40;99.90
9808;DHT22;4943;52.550;13.462;2023-03-23T04:17:51;14.30;99.90
9808;DHT22;4943;52.550;13.462;2023-03-23T04:20:18;14.30;99.90
9808;DHT22;4943;52.550;13.462;2023-03-23T04:22:45;14.30;99.90
9808;DHT22;4943;52.550;13.462;2023-03-23T04:25:16;14.30;99.90
9808;DHT22;4943;52.550;13.462;2023-03-23T04:27:46;14.30;99.90
9808;DHT22;4943;52.550;13.462;2023-03-23T04:30:21;14.30;99.90
9808;DHT22;4943;52.550;13.462;2023-03-23T04:32:49;14.40;99.90
9808;DHT22;4943;52.550;13.462;2023-03-23T04:35:19;14.40;99.90
9808;DHT22;4943;52.550;13.462;2023-03-23T04:37:47;14.40;99.90
9808;DHT22;4943;52.550;13.462;2023-03-23T04:40:15;14.40;99.90
9808;DHT22;4943;52.550;13.462;2023-03-23T04:42:43;14.50;99.90
9808;DHT22;4943;52.550;13.462;2023-03-23T04:45:13;14.50;99.90
9808;DHT22;4943;52.550;13.462;2023-03-23T04:47:42;14.50;99.90
9808;DHT22;4943;52.550;13.462;2023-03-23T04:50:19;14.50;99.90
9808;DHT22;4943;52.550;13.462;2023-03-23T04:52:47;14.50;99.90
9808;DHT22;4943;52.550;13.462;2023-03-23T04:55:14;14.50;99.90
9808;DHT22;4943;52.550;13.462;2023-03-23T04:57:41;14.50;99.90
9808;DHT22;4943;52.550;13.462;2023-03-23T05:00:09;14.40;99.90
9808;DHT22;4943;52.550;13.462;2023-03-23T05:02:41;14.40;99.90
9808;DHT22;4943;52.550;13.462;2023-03-23T05:05:10;14.40;99.90
9808;DHT22;4943;52.550;13.462;2023-03-23T05:07:39;14.40;99.90
9808;DHT22;4943;52.550;13.462;2023-03-23T05:10:08;14.40;99.90
9808;DHT22;4943;52.550;13.462;2023-03-23T05:12:35;14.40;99.90
9808;DHT22;4943;52.550;13.462;2023-03-23T05:15:04;14.40;99.90
9808;DHT22;4943;52.550;13.462;2023-03-23T05:17:31;14.30;99.90
9808;DHT22;4943;52.550;13.462;2023-03-23T05:20:01;14.30;99.90
9808;DHT22;4943;52.550;13.462;2023-03-23T05:22:33;14.30;99.90
9808;DHT22;4943;52.550;13.462;2023-03-23T05:25:00;14.30;99.90
9808;DHT22;4943;52.550;13.462;2023-03-23T05:27:29;14.20;99.90
9808;DHT22;4943;52.550;13.462;2023-03-23T05:29:56;14.20;99.90
9808;DHT22;4943;52.550;13.462;2023-03-23T05:32:24;14.20;99.90
9808;DHT22;4943;52.550;13.462;2023-03-23T05:34:55;14.30;99.90
9808;DHT22;4943;52.550;13.462;2023-03-23T05:37:23;14.30;99.90
9808;DHT22;4943;52.550;13.462;2023-03-23T05:39:50;14.30;99.90
9808;DHT22;4943;52.550;13.462;2023-03-23T05:42:19;14.30;99.90
9808;DHT22;4943;52.550;13.462;2023-03-23T05:44:46;14.30;99.90
9808;DHT22;4943;52.550;13.462;2023-03-23T05:47:13;14.30;99.90
9808;DHT22;4943;52.550;13.462;2023-03-23T05:49:40;14.30;99.90
9808;DHT22;4943;52.550;13.462;2023-03-23T05:52:08;14.30;99.90
9808;DHT22;4943;52.550;13.462;2023-03-23T05:54:36;14.30;99.90
9808;DHT22;4943;52.550;13.462;2023-03-23T05:57:03;14.20;99.90
9808;DHT22;4943;52.550;13.462;2023-03-23T05:59:31;14.20;99.90
9808;DHT22;4943;52.550;13.462;2023-03-23T06:01:59;14.20;99.90
9808;DHT22;4943;52.550;13.462;2023-03-23T06:04:26;14.10;99.90
9808;DHT22;4943;52.550;13.462;2023-03-23T06:06:53;14.10;99.90
9808;DHT22;4943;52.550;13.462;2023-03-23T06:09:20;14.00;99.90
9808;DHT22;4943;52.550;13.462;2023-03-23T06:11:50;14.00;99.90
9808;DHT22;4943;52.550;13.462;2023-03-23T06:14:17;14.00;99.90
9808;DHT22;4943;52.550;13.462;2023-03-23T06:16:44;14.00;99.90
9808;DHT22;4943;52.550;13.462;2023-03-23T06:19:11;14.00;99.90
9808;DHT22;4943;52.550;13.462;2023-03-23T06:21:38;14.00;99.90
9808;DHT22;4943;52.550;13.462;2023-03-23T06:24:05;14.00;99.90
9808;DHT22;4943;52.550;13.462;2023-03-23T06:26:35;14.00;99.90
9808;DHT22;4943;52.550;13.462;2023-03-23T06:29:05;14.00;99.90
9808;DHT22;4943;52.550;13.462;2023-03-23T06:31:37;14.00;99.90
9808;DHT22;4943;52.550;13.462;2023-03-23T06:34:06;13.90;99.90
9808;DHT22;4943;52.550;13.462;2023-03-23T06:36:34;14.00;99.90
9808;DHT22;4943;52.550;13.462;2023-03-23T06:39:01;14.00;99.90
9808;DHT22;4943;52.550;13.462;2023-03-23T06:41:30;14.00;99.90
9808;DHT22;4943;52.550;13.462;2023-03-23T06:43:57;14.00;99.90
9808;DHT22;4943;52.550;13.462;2023-03-23T06:46:26;14.00;99.90
9808;DHT22;4943;52.550;13.462;2023-03-23T06:48:53;14.10;99.90
9808;DHT22;4943;52.550;13.462;2023-03-23T06:51:21;14.10;99.90
9808;DHT22;4943;52.550;13.462;2023-03-23T06:53:48;14.10;99.90
9808;DHT22;4943;52.550;13.462;2023-03-23T06:56:15;14.10;99.90
9808;DHT22;4943;52.550;13.462;2023-03-23T06:58:42;14.10;99.90
9808;DHT22;4943;52.550;13.462;2023-03-23T07:01:11;14.10;99.90
9808;DHT22;4943;52.550;13.462;2023-03-23T07:03:39;14.10;99.90
9808;DHT22;4943;52.550;13.462;2023-03-23T07:06:07;14.10;99.90
9808;DHT22;4943;52.550;13.462;2023-03-23T07:08:34;14.10;99.90
9808;DHT22;4943;52.550;13.462;2023-03-23T07:11:02;14.10;99.90
9808;DHT22;4943;52.550;13.462;2023-03-23T07:13:30;14.20;99.90
9808;DHT22;4943;52.550;13.462;2023-03-23T07:15:58;14.20;99.90
9808;DHT22;4943;52.550;13.462;2023-03-23T07:18:25;14.10;99.90
9808;DHT22;4943;52.550;13.462;2023-03-23T07:20:54;14.20;99.90
9808;DHT22;4943;52.550;13.462;2023-03-23T07:23:21;14.10;99.90
9808;DHT22;4943;52.550;13.462;2023-03-23T07:25:52;14.20;99.90
9808;DHT22;4943;52.550;13.462;2023-03-23T07:28:19;14.20;99.90
9808;DHT22;4943;52.550;13.462;2023-03-23T07:30:46;14.20;99.90
9808;DHT22;4943;52.550;13.462;2023-03-23T07:33:13;14.20;99.90
9808;DHT22;4943;52.550;13.462;2023-03-23T07:35:40;14.20;99.90
9808;DHT22;4943;52.550;13.462;2023-03-23T07:38:09;14.30;99.90
9808;DHT22;4943;52.550;13.462;2023-03-23T07:40:37;14.30;99.90
9808;DHT22;4943;52.550;13.462;2023-03-23T07:43:04;14.30;99.90
9808;DHT22;4943;52.550;13.462;2023-03-23T07:45:31;14.30;99.90
9808;DHT22;4943;52.550;13.462;2023-03-23T07:47:59;14.30;99.90
9808;DHT22;4943;52.550;13.462;2023-03-23T07:50:26;14.40;99.90
9808;DHT22;4943;52.550;13.462;2023-03-23T07:52:55;14.40;99.90
9808;DHT22;4943;52.550;13.462;2023-03-23T07:55:24;14.50;99.90
9808;DHT22;4943;52.550;13.462;2023-03-23T07:57:53;14.50;99.90
9808;DHT22;4943;52.550;13.462;2023-03-23T08:00:22;14.50;99.90
9808;DHT22;4943;52.550;13.462;2023-03-23T08:02:51;14.60;99.90
9808;DHT22;4943;52.550;13.462;2023-03-23T08:05:18;14.60;99.90
9808;DHT22;4943;52.550;13.462;2023-03-23T08:07:46;14.60;99.90
9808;DHT22;4943;52.550;13.462;2023-03-23T08:10:15;14.70;99.90
9808;DHT22;4943;52.550;13.462;2023-03-23T08:12:45;14.70;99.90
9808;DHT22;4943;52.550;13.462;2023-03-23T08:15:13;14.80;99.90
9808;DHT22;4943;52.550;13.462;2023-03-23T08:17:41;14.80;99.90
9808;DHT22;4943;52.550;13.462;2023-03-23T08:20:11;14.90;99.90
9808;DHT22;4943;52.550;13.462;2023-03-23T08:22:39;14.90;99.90
9808;DHT22;4943;52.550;13.462;2023-03-23T08:25:09;15.00;99.90
9808;DHT22;4943;52.550;13.462;2023-03-23T08:27:37;15.10;99.90
9808;DHT22;4943;52.550;13.462;2023-03-23T08:30:11;15.10;99.90
9808;DHT22;4943;52.550;13.462;2023-03-23T08:32:39;15.10;99.90
9808;DHT22;4943;52.550;13.462;2023-03-23T08:35:07;15.10;99.90
9808;DHT22;4943;52.550;13.462;2023-03-23T08:37:35;15.10;99.90
9808;DHT22;4943;52.550;13.462;2023-03-23T08:40:03;15.10;99.90
9808;DHT22;4943;52.550;13.462;2023-03-23T08:42:34;15.10;99.90
9808;DHT22;4943;52.550;13.462;2023-03-23T08:45:01;15.00;99.90
9808;DHT22;4943;52.550;13.462;2023-03-23T08:47:30;15.00;99.90
9808;DHT22;4943;52.550;13.462;2023-03-23T08:49:57;15.10;99.90
9808;DHT22;4943;52.550;13.462;2023-03-23T08:52:24;15.20;99.90
9808;DHT22;4943;52.550;13.462;2023-03-23T08:54:51;15.30;99.90
9808;DHT22;4943;52.550;13.462;2023-03-23T08:57:18;15.40;99.90
9808;DHT22;4943;52.550;13.462;2023-03-23T08:59:45;15.50;99.90
9808;DHT22;4943;52.550;13.462;2023-03-23T09:02:12;15.60;99.90
9808;DHT22;4943;52.550;13.462;2023-03-23T09:04:41;15.60;99.90
9808;DHT22;4943;52.550;13.462;2023-03-23T09:07:09;15.70;99.90
9808;DHT22;4943;52.550;13.462;2023-03-23T09:09:37;15.80;99.90
9808;DHT22;4943;52.550;13.462;2023-03-23T09:12:05;15.90;99.90
9808;DHT22;4943;52.550;13.462;2023-03-23T09:14:32;16.00;99.90
9808;DHT22;4943;52.550;13.462;2023-03-23T09:17:00;16.00;99.90
9808;DHT22;4943;52.550;13.462;2023-03-23T09:19:28;16.00;99.90
9808;DHT22;4943;52.550;13.462;2023-03-23T09:21:57;16.00;99.90
9808;DHT22;4943;52.550;13.462;2023-03-23T09:24:24;16.00;99.90
9808;DHT22;4943;52.550;13.462;2023-03-23T09:26:51;16.00;99.90
9808;DHT22;4943;52.550;13.462;2023-03-23T09:29:19;16.10;99.90
9808;DHT22;4943;52.550;13.462;2023-03-23T09:31:46;16.10;99.90
9808;DHT22;4943;52.550;13.462;2023-03-23T09:34:14;16.20;99.90
9808;DHT22;4943;52.550;13.462;2023-03-23T09:36:42;16.40;99.90
9808;DHT22;4943;52.550;13.462;2023-03-23T09:39:11;16.40;99.90
9808;DHT22;4943;52.550;13.462;2023-03-23T09:42:03;16.50;99.90
9808;DHT22;4943;52.550;13.462;2023-03-23T09:44:44;16.60;99.90
9808;DHT22;4943;52.550;13.462;2023-03-23T09:47:20;16.50;99.90
9808;DHT22;4943;52.550;13.462;2023-03-23T09:49:53;16.50;99.90
9808;DHT22;4943;52.550;13.462;2023-03-23T09:52:21;16.50;99.90
9808;DHT22;4943;52.550;13.462;2023-03-23T09:54:53;16.50;99.90
9808;DHT22;4943;52.550;13.462;2023-03-23T09:57:26;16.50;99.90
9808;DHT22;4943;52.550;13.462;2023-03-23T10:00:03;16.60;99.90
9808;DHT22;4943;52.550;13.462;2023-03-23T10:02:36;16.70;99.90
9808;DHT22;4943;52.550;13.462;2023-03-23T10:05:27;16.80;99.90
9808;DHT22;4943;52.550;13.462;2023-03-23T10:07:55;16.90;99.90
9808;DHT22;4943;52.550;13.462;2023-03-23T10:10:35;17.00;99.90
9808;DHT22;4943;52.550;13.462;2023-03-23T10:13:09;17.10;99.90
9808;DHT22;4943;52.550;13.462;2023-03-23T10:15:42;17.20;99.90
9808;DHT22;4943;52.550;13.462;2023-03-23T10:18:14;17.30;99.90
9808;DHT22;4943;52.550;13.462;2023-03-23T10:20:47;17.40;99.90
9808;DHT22;4943;52.550;13.462;2023-03-23T10:23:40;17.60;99.90
9808;DHT22;4943;52.550;13.462;2023-03-23T10:26:17;17.70;99.90
9808;DHT22;4943;52.550;13.462;2023-03-23T10:28:50;17.70;99.90
9808;DHT22;4943;52.550;13.462;2023-03-23T10:31:21;17.80;99.90
9808;DHT22;4943;52.550;13.462;2023-03-23T10:33:51;17.90;99.90
9808;DHT22;4943;52.550;13.462;2023-03-23T10:36:24;18.00;99.90
9808;DHT22;4943;52.550;13.462;2023-03-23T10:38:57;18.10;99.90
9808;DHT22;4943;52.550;13.462;2023-03-23T10:41:26;18.20;99.90
9808;DHT22;4943;52.550;13.462;2023-03-23T10:43:53;18.20;99.90
9808;DHT22;4943;52.550;13.462;2023-03-23T10:46:28;18.30;99.90
9808;DHT22;4943;52.550;13.462;2023-03-23T10:48:58;18.30;99.90
9808;DHT22;4943;52.550;13.462;2023-03-23T10:51:32;18.40;99.90
9808;DHT22;4943;52.550;13.462;2023-03-23T10:54:01;18.40;99.90
9808;DHT22;4943;52.550;13.462;2023-03-23T10:56:37;18.40;99.90
9808;DHT22;4943;52.550;13.462;2023-03-23T10:59:13;18.40;99.90
9808;DHT22;4943;52.550;13.462;2023-03-23T11:01:43;18.40;99.90
9808;DHT22;4943;52.550;13.462;2023-03-23T11:04:12;18.50;99.90
9808;DHT22;4943;52.550;13.462;2023-03-23T11:06:44;18.50;99.90
9808;DHT22;4943;52.550;13.462;2023-03-23T11:09:13;18.40;99.90
9808;DHT22;4943;52.550;13.462;2023-03-23T11:11:43;18.50;99.90
9808;DHT22;4943;52.550;13.462;2023-03-23T11:14:17;18.50;99.90
9808;DHT22;4943;52.550;13.462;2023-03-23T11:16:46;18.40;99.90
9808;DHT22;4943;52.550;13.462;2023-03-23T11:19:22;18.40;99.90
9808;DHT22;4943;52.550;13.462;2023-03-23T11:21:51;18.40;99.90
9808;DHT22;4943;52.550;13.462;2023-03-23T11:24:22;18.40;99.90
9808;DHT22;4943;52.550;13.462;2023-03-23T11:26:51;18.40;99.90
9808;DHT22;4943;52.550;13.462;2023-03-23T11:29:20;18.40;99.90
9808;DHT22;4943;52.550;13.462;2023-03-23T11:31:49;18.40;99.90
9808;DHT22;4943;52.550;13.462;2023-03-23T11:34:20;18.50;99.90
9808;DHT22;4943;52.550;13.462;2023-03-23T11:36:49;18.60;99.90
9808;DHT22;4943;52.550;13.462;2023-03-23T11:39:21;18.70;99.90
9808;DHT22;4943;52.550;13.462;2023-03-23T11:41:50;18.80;99.90
9808;DHT22;4943;52.550;13.462;2023-03-23T11:44:18;18.90;99.90
9808;DHT22;4943;52.550;13.462;2023-03-23T11:46:52;18.90;99.90
9808;DHT22;4943;52.550;13.462;2023-03-23T11:49:40;19.10;99.90
9808;DHT22;4943;52.550;13.462;2023-03-23T11:52:13;19.20;99.90
9808;DHT22;4943;52.550;13.462;2023-03-23T11:54:47;19.30;99.90
9808;DHT22;4943;52.550;13.462;2023-03-23T11:57:17;19.30;99.90
9808;DHT22;4943;52.550;13.462;2023-03-23T11:59:44;19.30;99.90
9808;DHT22;4943;52.550;13.462;2023-03-23T12:02:32;19.30;99.90
9808;DHT22;4943;52.550;13.462;2023-03-23T12:05:26;19.30;99.90
9808;DHT22;4943;52.550;13.462;2023-03-23T12:08:06;19.30;99.90
9808;DHT22;4943;52.550;13.462;2023-03-23T12:10:40;19.40;99.90
9808;DHT22;4943;52.550;13.462;2023-03-23T12:13:34;19.30;99.90
9808;DHT22;4943;52.550;13.462;2023-03-23T12:16:13;19.40;99.90
9808;DHT22;4943;52.550;13.462;2023-03-23T12:18:50;19.30;99.90
9808;DHT22;4943;52.550;13.462;2023-03-23T12:21:24;19.30;99.90
9808;DHT22;4943;52.550;13.462;2023-03-23T12:24:12;19.20;99.90
9808;DHT22;4943;52.550;13.462;2023-03-23T12:26:46;19.10;99.90
9808;DHT22;4943;52.550;13.462;2023-03-23T12:29:31;19.10;99.90
9808;DHT22;4943;52.550;13.462;2023-03-23T12:32:19;19.20;99.90
9808;DHT22;4943;52.550;13.462;2023-03-23T12:34:53;19.20;99.90
9808;DHT22;4943;52.550;13.462;2023-03-23T12:37:42;19.30;99.90
9808;DHT22;4943;52.550;13.462;2023-03-23T12:40:28;19.30;99.90
9808;DHT22;4943;52.550;13.462;2023-03-23T12:43:01;19.30;99.90
9808;DHT22;4943;52.550;13.462;2023-03-23T12:45:52;19.30;99.90
9808;DHT22;4943;52.550;13.462;2023-03-23T12:48:23;19.30;99.90
9808;DHT22;4943;52.550;13.462;2023-03-23T12:51:07;19.30;99.90
9808;DHT22;4943;52.550;13.462;2023-03-23T12:53:38;19.30;99.90
9808;DHT22;4943;52.550;13.462;2023-03-23T12:56:11;19.30;99.90
9808;DHT22;4943;52.550;13.462;2023-03-23T12:58:43;19.30;99.90
9808;DHT22;4943;52.550;13.462;2023-03-23T13:01:17;19.40;99.90
9808;DHT22;4943;52.550;13.462;2023-03-23T13:03:50;19.60;99.90
9808;DHT22;4943;52.550;13.462;2023-03-23T13:06:24;19.80;99.90
9808;DHT22;4943;52.550;13.462;2023-03-23T13:09:14;19.80;99.90
9808;DHT22;4943;52.550;13.462;2023-03-23T13:11:43;19.80;99.90
9808;DHT22;4943;52.550;13.462;2023-03-23T13:14:27;19.80;99.90
9808;DHT22;4943;52.550;13.462;2023-03-23T13:17:03;19.70;99.90
9808;DHT22;4943;52.550;13.462;2023-03-23T13:19:51;19.50;99.90
9808;DHT22;4943;52.550;13.462;2023-03-23T13:22:25;19.40;99.90
9808;DHT22;4943;52.550;13.462;2023-03-23T13:24:57;19.20;99.90
9808;DHT22;4943;52.550;13.462;2023-03-23T13:27:26;19.10;99.90
9808;DHT22;4943;52.550;13.462;2023-03-23T13:29:54;19.00;99.90
9808;DHT22;4943;52.550;13.462;2023-03-23T13:32:30;18.90;99.90
9808;DHT22;4943;52.550;13.462;2023-03-23T13:35:01;18.90;99.90
9808;DHT22;4943;52.550;13.462;2023-03-23T13:37:28;18.90;99.90
9808;DHT22;4943;52.550;13.462;2023-03-23T13:39:58;18.90;99.90
9808;DHT22;4943;52.550;13.462;2023-03-23T13:42:28;19.00;99.90
9808;DHT22;4943;52.550;13.462;2023-03-23T13:45:17;19.00;99.90
9808;DHT22;4943;52.550;13.462;2023-03-23T13:47:46;19.00;99.90
9808;DHT22;4943;52.550;13.462;2023-03-23T13:50:26;18.90;99.90
9808;DHT22;4943;52.550;13.462;2023-03-23T13:52:59;18.80;99.90
9808;DHT22;4943;52.550;13.462;2023-03-23T13:55:39;18.80;99.90
9808;DHT22;4943;52.550;13.462;2023-03-23T13:58:21;18.80;99.90
9808;DHT22;4943;52.550;13.462;2023-03-23T14:00:50;18.80;99.90
9808;DHT22;4943;52.550;13.462;2023-03-23T14:03:26;18.90;99.90
9808;DHT22;4943;52.550;13.462;2023-03-23T14:06:03;18.90;99.90
9808;DHT22;4943;52.550;13.462;2023-03-23T14:08:40;18.80;99.90
9808;DHT22;4943;52.550;13.462;2023-03-23T14:11:16;18.80;99.90
9808;DHT22;4943;52.550;13.462;2023-03-23T14:13:50;18.90;99.90
9808;DHT22;4943;52.550;13.462;2023-03-23T14:16:20;18.90;99.90
9808;DHT22;4943;52.550;13.462;2023-03-23T14:18:52;19.10;99.90
9808;DHT22;4943;52.550;13.462;2023-03-23T14:21:31;19.30;99.90
9808;DHT22;4943;52.550;13.462;2023-03-23T14:24:01;19.40;99.90
9808;DHT22;4943;52.550;13.462;2023-03-23T14:26:29;19.40;99.90
9808;DHT22;4943;52.550;13.462;2023-03-23T14:28:59;19.40;99.90
9808;DHT22;4943;52.550;13.462;2023-03-23T14:31:27;19.40;99.90
9808;DHT22;4943;52.550;13.462;2023-03-23T14:34:00;19.40;99.90
9808;DHT22;4943;52.550;13.462;2023-03-23T14:36:29;19.40;99.90
9808;DHT22;4943;52.550;13.462;2023-03-23T14:39:00;19.40;99.90
9808;DHT22;4943;52.550;13.462;2023-03-23T14:41:29;19.30;99.90
9808;DHT22;4943;52.550;13.462;2023-03-23T14:43:58;19.30;99.90
9808;DHT22;4943;52.550;13.462;2023-03-23T14:46:27;19.20;99.90
9808;DHT22;4943;52.550;13.462;2023-03-23T14:48:56;19.20;99.90
9808;DHT22;4943;52.550;13.462;2023-03-23T14:51:26;19.10;99.90
9808;DHT22;4943;52.550;13.462;2023-03-23T14:53:53;19.10;99.90
9808;DHT22;4943;52.550;13.462;2023-03-23T14:56:22;19.00;99.90
9808;DHT22;4943;52.550;13.462;2023-03-23T14:58:53;18.90;99.90
9808;DHT22;4943;52.550;13.462;2023-03-23T15:01:24;18.90;99.90
9808;DHT22;4943;52.550;13.462;2023-03-23T15:03:57;18.90;99.90
9808;DHT22;4943;52.550;13.462;2023-03-23T15:06:29;18.90;99.90
9808;DHT22;4943;52.550;13.462;2023-03-23T15:08:59;19.00;99.90
9808;DHT22;4943;52.550;13.462;2023-03-23T15:11:30;19.10;99.90
9808;DHT22;4943;52.550;13.462;2023-03-23T15:14:00;19.10;99.90
9808;DHT22;4943;52.550;13.462;2023-03-23T15:16:31;19.10;99.90
9808;DHT22;4943;52.550;13.462;2023-03-23T15:19:02;19.20;99.90
9808;DHT22;4943;52.550;13.462;2023-03-23T15:21:30;19.20;99.90
9808;DHT22;4943;52.550;13.462;2023-03-23T15:24:00;19.20;99.90
9808;DHT22;4943;52.550;13.462;2023-03-23T15:26:32;19.20;99.90
9808;DHT22;4943;52.550;13.462;2023-03-23T15:29:15;19.20;99.90
9808;DHT22;4943;52.550;13.462;2023-03-23T15:31:45;19.20;99.90
9808;DHT22;4943;52.550;13.462;2023-03-23T15:34:23;19.10;99.90
9808;DHT22;4943;52.550;13.462;2023-03-23T15:36:57;19.10;99.90
9808;DHT22;4943;52.550;13.462;2023-03-23T15:39:25;19.00;99.90
9808;DHT22;4943;52.550;13.462;2023-03-23T15:41:53;19.10;99.90
9808;DHT22;4943;52.550;13.462;2023-03-23T15:44:29;19.10;99.90
9808;DHT22;4943;52.550;13.462;2023-03-23T15:47:12;19.10;99.90
9808;DHT22;4943;52.550;13.462;2023-03-23T15:49:42;19.10;99.90
9808;DHT22;4943;52.550;13.462;2023-03-23T15:52:10;19.00;99.90
9808;DHT22;4943;52.550;13.462;2023-03-23T15:54:38;18.90;99.90
9808;DHT22;4943;52.550;13.462;2023-03-23T15:57:05;18.80;99.90
9808;DHT22;4943;52.550;13.462;2023-03-23T15:59:32;18.80;99.90
9808;DHT22;4943;52.550;13.462;2023-03-23T16:02:00;18.70;99.90
9808;DHT22;4943;52.550;13.462;2023-03-23T16:04:28;18.70;99.90
9808;DHT22;4943;52.550;13.462;2023-03-23T16:07:00;18.70;99.90
9808;DHT22;4943;52.550;13.462;2023-03-23T16:09:28;18.60;99.90
9808;DHT22;4943;52.550;13.462;2023-03-23T16:11:56;18.60;99.90